sim
Sign-in with your pilot id or email,
or register
Callsign
Passwort

Schedule Details

Flight Number: RYR7777 (3)
Departure: Chania International Airport (LGSA) at 12:05
Arrival: Thessaloniki International Airport (LGTS) at 13:25
Route: Ryanair Passenger Schedule. Enter filed route here before submitting Pirep.

Weather Information
Getting current METAR information for LGSA 252120Z 00000KT 9000 FEW006 BKN090 17/16 Q1020
Getting current METAR information for LGTS 252120Z 00000KT CAVOK 15/12 Q1020 NOSIG

Schedule Frequency

Route Map